sensor_id;sensor_type;location;lat;lon;timestamp;P1;durP1;ratioP1;P2;durP2;ratioP2
76599;SDS011;65489;52.048;6.090;2023-04-30T00:01:02;2.13;;;1.08;;
76599;SDS011;65489;52.048;6.090;2023-04-30T00:03:28;2.47;;;1.00;;
76599;SDS011;65489;52.048;6.090;2023-04-30T00:05:53;1.20;;;1.00;;
76599;SDS011;65489;52.048;6.090;2023-04-30T00:08:19;1.30;;;0.93;;
76599;SDS011;65489;52.048;6.090;2023-04-30T00:10:44;1.30;;;0.82;;
76599;SDS011;65489;52.048;6.090;2023-04-30T00:13:10;3.55;;;0.93;;
76599;SDS011;65489;52.048;6.090;2023-04-30T00:15:37;2.10;;;0.90;;
76599;SDS011;65489;52.048;6.090;2023-04-30T00:18:03;1.20;;;1.10;;
76599;SDS011;65489;52.048;6.090;2023-04-30T00:20:30;1.95;;;1.00;;
76599;SDS011;65489;52.048;6.090;2023-04-30T00:22:56;0.93;;;0.82;;
76599;SDS011;65489;52.048;6.090;2023-04-30T00:25:22;1.20;;;0.93;;
76599;SDS011;65489;52.048;6.090;2023-04-30T00:27:48;1.25;;;0.90;;
76599;SDS011;65489;52.048;6.090;2023-04-30T00:30:14;2.15;;;0.90;;
76599;SDS011;65489;52.048;6.090;2023-04-30T00:32:40;0.90;;;0.70;;
76599;SDS011;65489;52.048;6.090;2023-04-30T00:35:05;1.15;;;0.90;;
76599;SDS011;65489;52.048;6.090;2023-04-30T00:37:31;3.08;;;1.13;;
76599;SDS011;65489;52.048;6.090;2023-04-30T00:39:56;1.60;;;0.98;;
76599;SDS011;65489;52.048;6.090;2023-04-30T00:42:22;1.05;;;0.88;;
76599;SDS011;65489;52.048;6.090;2023-04-30T00:44:48;1.90;;;0.80;;
76599;SDS011;65489;52.048;6.090;2023-04-30T00:47:13;2.72;;;0.90;;
76599;SDS011;65489;52.048;6.090;2023-04-30T00:49:39;0.68;;;0.60;;
76599;SDS011;65489;52.048;6.090;2023-04-30T00:52:04;2.13;;;0.88;;
76599;SDS011;65489;52.048;6.090;2023-04-30T00:54:30;1.17;;;0.70;;
76599;SDS011;65489;52.048;6.090;2023-04-30T00:56:56;1.65;;;1.00;;
76599;SDS011;65489;52.048;6.090;2023-04-30T00:59:22;1.17;;;0.85;;
76599;SDS011;65489;52.048;6.090;2023-04-30T01:01:48;1.35;;;1.00;;
76599;SDS011;65489;52.048;6.090;2023-04-30T01:04:14;1.20;;;1.00;;
76599;SDS011;65489;52.048;6.090;2023-04-30T01:06:39;1.50;;;1.02;;
76599;SDS011;65489;52.048;6.090;2023-04-30T01:09:05;1.77;;;0.90;;
76599;SDS011;65489;52.048;6.090;2023-04-30T01:16:54;1.30;;;0.80;;
76599;SDS011;65489;52.048;6.090;2023-04-30T01:19:39;1.13;;;0.90;;
76599;SDS011;65489;52.048;6.090;2023-04-30T01:22:08;0.90;;;0.68;;
76599;SDS011;65489;52.048;6.090;2023-04-30T01:28:09;1.00;;;0.90;;
76599;SDS011;65489;52.048;6.090;2023-04-30T01:30:40;1.25;;;1.00;;
76599;SDS011;65489;52.048;6.090;2023-04-30T01:33:09;1.40;;;0.85;;
76599;SDS011;65489;52.048;6.090;2023-04-30T01:35:52;1.08;;;0.80;;
76599;SDS011;65489;52.048;6.090;2023-04-30T01:47:11;1.35;;;0.90;;
76599;SDS011;65489;52.048;6.090;2023-04-30T01:49:57;1.38;;;0.80;;
76599;SDS011;65489;52.048;6.090;2023-04-30T01:52:52;1.08;;;0.75;;
76599;SDS011;65489;52.048;6.090;2023-04-30T01:58:11;1.02;;;0.77;;
76599;SDS011;65489;52.048;6.090;2023-04-30T02:00:37;1.75;;;0.98;;
76599;SDS011;65489;52.048;6.090;2023-04-30T02:03:03;1.10;;;0.80;;
76599;SDS011;65489;52.048;6.090;2023-04-30T02:05:28;1.05;;;0.68;;
76599;SDS011;65489;52.048;6.090;2023-04-30T02:07:54;1.20;;;0.90;;
76599;SDS011;65489;52.048;6.090;2023-04-30T02:10:21;1.13;;;0.80;;
76599;SDS011;65489;52.048;6.090;2023-04-30T02:12:47;0.82;;;0.70;;
76599;SDS011;65489;52.048;6.090;2023-04-30T02:15:13;1.17;;;0.85;;
76599;SDS011;65489;52.048;6.090;2023-04-30T02:17:39;0.98;;;0.80;;
76599;SDS011;65489;52.048;6.090;2023-04-30T02:20:05;0.98;;;0.80;;
76599;SDS011;65489;52.048;6.090;2023-04-30T02:22:32;0.82;;;0.70;;
76599;SDS011;65489;52.048;6.090;2023-04-30T02:24:57;1.17;;;0.90;;
76599;SDS011;65489;52.048;6.090;2023-04-30T02:27:23;1.20;;;0.88;;
76599;SDS011;65489;52.048;6.090;2023-04-30T02:29:50;0.93;;;0.80;;
76599;SDS011;65489;52.048;6.090;2023-04-30T02:32:16;1.13;;;0.75;;
76599;SDS011;65489;52.048;6.090;2023-04-30T02:34:42;0.85;;;0.75;;
76599;SDS011;65489;52.048;6.090;2023-04-30T02:37:07;0.88;;;0.70;;
76599;SDS011;65489;52.048;6.090;2023-04-30T02:39:33;1.10;;;1.00;;
76599;SDS011;65489;52.048;6.090;2023-04-30T02:41:58;1.00;;;0.80;;
76599;SDS011;65489;52.048;6.090;2023-04-30T02:44:24;1.08;;;0.80;;
76599;SDS011;65489;52.048;6.090;2023-04-30T02:46:50;1.05;;;0.70;;
76599;SDS011;65489;52.048;6.090;2023-04-30T02:49:16;1.00;;;0.90;;
76599;SDS011;65489;52.048;6.090;2023-04-30T02:51:41;1.17;;;0.90;;
76599;SDS011;65489;52.048;6.090;2023-04-30T02:54:07;1.50;;;0.73;;
76599;SDS011;65489;52.048;6.090;2023-04-30T02:56:33;2.25;;;0.85;;
76599;SDS011;65489;52.048;6.090;2023-04-30T02:58:59;2.03;;;0.85;;
76599;SDS011;65489;52.048;6.090;2023-04-30T03:01:24;0.90;;;0.70;;
76599;SDS011;65489;52.048;6.090;2023-04-30T03:03:50;0.88;;;0.68;;
76599;SDS011;65489;52.048;6.090;2023-04-30T03:06:15;0.90;;;0.80;;
76599;SDS011;65489;52.048;6.090;2023-04-30T03:08:41;1.38;;;0.80;;
76599;SDS011;65489;52.048;6.090;2023-04-30T03:11:06;1.00;;;0.70;;
76599;SDS011;65489;52.048;6.090;2023-04-30T03:13:32;0.90;;;0.80;;
76599;SDS011;65489;52.048;6.090;2023-04-30T03:16:01;1.42;;;0.70;;
76599;SDS011;65489;52.048;6.090;2023-04-30T03:18:28;1.35;;;0.85;;
76599;SDS011;65489;52.048;6.090;2023-04-30T03:20:54;0.98;;;0.80;;
76599;SDS011;65489;52.048;6.090;2023-04-30T03:23:20;1.48;;;0.90;;
76599;SDS011;65489;52.048;6.090;2023-04-30T03:25:46;0.70;;;0.65;;
76599;SDS011;65489;52.048;6.090;2023-04-30T03:28:11;1.52;;;0.80;;
76599;SDS011;65489;52.048;6.090;2023-04-30T03:30:37;0.80;;;0.68;;
76599;SDS011;65489;52.048;6.090;2023-04-30T03:33:03;0.80;;;0.73;;
76599;SDS011;65489;52.048;6.090;2023-04-30T03:35:32;1.00;;;0.70;;
76599;SDS011;65489;52.048;6.090;2023-04-30T03:37:58;1.00;;;0.75;;
76599;SDS011;65489;52.048;6.090;2023-04-30T03:40:24;0.60;;;0.60;;
76599;SDS011;65489;52.048;6.090;2023-04-30T03:42:49;0.93;;;0.65;;
76599;SDS011;65489;52.048;6.090;2023-04-30T03:45:14;1.05;;;0.70;;
76599;SDS011;65489;52.048;6.090;2023-04-30T03:47:41;0.80;;;0.80;;
76599;SDS011;65489;52.048;6.090;2023-04-30T03:50:07;1.20;;;0.73;;
76599;SDS011;65489;52.048;6.090;2023-04-30T03:52:33;0.60;;;0.60;;
76599;SDS011;65489;52.048;6.090;2023-04-30T03:55:01;0.77;;;0.73;;
76599;SDS011;65489;52.048;6.090;2023-04-30T03:57:27;1.00;;;0.80;;
76599;SDS011;65489;52.048;6.090;2023-04-30T03:59:53;0.82;;;0.60;;
76599;SDS011;65489;52.048;6.090;2023-04-30T04:02:19;0.80;;;0.80;;
76599;SDS011;65489;52.048;6.090;2023-04-30T04:04:45;0.73;;;0.68;;
76599;SDS011;65489;52.048;6.090;2023-04-30T04:07:11;0.88;;;0.77;;
76599;SDS011;65489;52.048;6.090;2023-04-30T04:09:37;1.13;;;0.88;;
76599;SDS011;65489;52.048;6.090;2023-04-30T04:12:02;1.35;;;0.80;;
76599;SDS011;65489;52.048;6.090;2023-04-30T04:14:28;0.95;;;0.43;;
76599;SDS011;65489;52.048;6.090;2023-04-30T04:16:53;0.63;;;0.60;;
76599;SDS011;65489;52.048;6.090;2023-04-30T04:19:19;1.60;;;0.70;;
76599;SDS011;65489;52.048;6.090;2023-04-30T04:21:45;0.93;;;0.60;;
76599;SDS011;65489;52.048;6.090;2023-04-30T04:24:14;0.80;;;0.70;;
76599;SDS011;65489;52.048;6.090;2023-04-30T04:26:39;1.00;;;0.60;;
76599;SDS011;65489;52.048;6.090;2023-04-30T04:29:06;0.60;;;0.60;;
76599;SDS011;65489;52.048;6.090;2023-04-30T04:31:35;0.90;;;0.80;;
76599;SDS011;65489;52.048;6.090;2023-04-30T04:34:02;0.77;;;0.65;;
76599;SDS011;65489;52.048;6.090;2023-04-30T04:36:29;0.80;;;0.65;;
76599;SDS011;65489;52.048;6.090;2023-04-30T04:38:56;1.02;;;0.65;;
76599;SDS011;65489;52.048;6.090;2023-04-30T04:41:22;0.98;;;0.63;;
76599;SDS011;65489;52.048;6.090;2023-04-30T04:43:49;0.80;;;0.60;;
76599;SDS011;65489;52.048;6.090;2023-04-30T04:46:14;0.70;;;0.57;;
76599;SDS011;65489;52.048;6.090;2023-04-30T04:48:41;1.25;;;0.80;;
76599;SDS011;65489;52.048;6.090;2023-04-30T04:51:08;1.73;;;0.95;;
76599;SDS011;65489;52.048;6.090;2023-04-30T04:53:34;1.00;;;0.80;;
76599;SDS011;65489;52.048;6.090;2023-04-30T04:56:00;1.67;;;0.60;;
76599;SDS011;65489;52.048;6.090;2023-04-30T04:58:25;0.82;;;0.70;;
76599;SDS011;65489;52.048;6.090;2023-04-30T05:00:51;0.80;;;0.70;;
76599;SDS011;65489;52.048;6.090;2023-04-30T05:03:16;0.82;;;0.70;;
76599;SDS011;65489;52.048;6.090;2023-04-30T05:05:42;0.55;;;0.55;;
76599;SDS011;65489;52.048;6.090;2023-04-30T05:08:07;0.70;;;0.60;;
76599;SDS011;65489;52.048;6.090;2023-04-30T05:10:33;2.17;;;0.88;;
76599;SDS011;65489;52.048;6.090;2023-04-30T05:12:58;0.90;;;0.68;;
76599;SDS011;65489;52.048;6.090;2023-04-30T05:15:24;2.55;;;0.85;;
76599;SDS011;65489;52.048;6.090;2023-04-30T05:17:49;1.08;;;0.70;;
76599;SDS011;65489;52.048;6.090;2023-04-30T05:20:15;0.70;;;0.55;;
76599;SDS011;65489;52.048;6.090;2023-04-30T05:22:40;0.70;;;0.65;;
76599;SDS011;65489;52.048;6.090;2023-04-30T05:25:07;0.70;;;0.60;;
76599;SDS011;65489;52.048;6.090;2023-04-30T05:27:33;0.60;;;0.60;;
76599;SDS011;65489;52.048;6.090;2023-04-30T05:29:58;0.80;;;0.60;;
76599;SDS011;65489;52.048;6.090;2023-04-30T05:32:24;0.82;;;0.70;;
76599;SDS011;65489;52.048;6.090;2023-04-30T05:34:50;1.27;;;0.73;;
76599;SDS011;65489;52.048;6.090;2023-04-30T05:37:15;1.10;;;0.60;;
76599;SDS011;65489;52.048;6.090;2023-04-30T05:39:43;1.35;;;0.82;;
76599;SDS011;65489;52.048;6.090;2023-04-30T05:42:08;1.98;;;0.98;;
76599;SDS011;65489;52.048;6.090;2023-04-30T05:44:34;0.60;;;0.50;;
76599;SDS011;65489;52.048;6.090;2023-04-30T05:46:59;1.15;;;0.90;;
76599;SDS011;65489;52.048;6.090;2023-04-30T05:49:25;1.60;;;0.80;;
76599;SDS011;65489;52.048;6.090;2023-04-30T05:51:51;1.70;;;0.80;;
76599;SDS011;65489;52.048;6.090;2023-04-30T05:54:16;2.10;;;0.75;;
76599;SDS011;65489;52.048;6.090;2023-04-30T05:56:42;0.82;;;0.73;;
76599;SDS011;65489;52.048;6.090;2023-04-30T05:59:07;1.42;;;0.80;;
76599;SDS011;65489;52.048;6.090;2023-04-30T06:01:33;1.60;;;0.70;;
76599;SDS011;65489;52.048;6.090;2023-04-30T06:03:58;0.60;;;0.60;;
76599;SDS011;65489;52.048;6.090;2023-04-30T06:06:25;0.70;;;0.70;;
76599;SDS011;65489;52.048;6.090;2023-04-30T06:08:52;1.60;;;0.82;;
76599;SDS011;65489;52.048;6.090;2023-04-30T06:11:17;0.95;;;0.82;;
76599;SDS011;65489;52.048;6.090;2023-04-30T06:13:42;1.00;;;0.77;;
76599;SDS011;65489;52.048;6.090;2023-04-30T06:16:08;0.98;;;0.80;;
76599;SDS011;65489;52.048;6.090;2023-04-30T06:18:33;0.75;;;0.68;;
76599;SDS011;65489;52.048;6.090;2023-04-30T06:20:59;1.38;;;0.80;;
76599;SDS011;65489;52.048;6.090;2023-04-30T06:23:24;1.02;;;0.70;;
76599;SDS011;65489;52.048;6.090;2023-04-30T06:25:50;1.27;;;0.75;;
76599;SDS011;65489;52.048;6.090;2023-04-30T06:28:15;0.90;;;0.80;;
76599;SDS011;65489;52.048;6.090;2023-04-30T06:30:41;2.25;;;0.75;;
76599;SDS011;65489;52.048;6.090;2023-04-30T06:33:06;0.90;;;0.80;;
76599;SDS011;65489;52.048;6.090;2023-04-30T06:35:32;1.42;;;0.85;;
76599;SDS011;65489;52.048;6.090;2023-04-30T06:37:57;1.00;;;0.77;;
76599;SDS011;65489;52.048;6.090;2023-04-30T06:40:22;1.25;;;1.00;;
76599;SDS011;65489;52.048;6.090;2023-04-30T06:42:48;0.75;;;0.73;;
76599;SDS011;65489;52.048;6.090;2023-04-30T06:45:13;2.97;;;1.10;;
76599;SDS011;65489;52.048;6.090;2023-04-30T06:47:39;0.77;;;0.70;;
76599;SDS011;65489;52.048;6.090;2023-04-30T06:50:06;2.63;;;1.08;;
76599;SDS011;65489;52.048;6.090;2023-04-30T06:52:32;1.00;;;0.90;;
76599;SDS011;65489;52.048;6.090;2023-04-30T06:54:57;2.03;;;1.08;;
76599;SDS011;65489;52.048;6.090;2023-04-30T06:57:23;1.92;;;0.82;;
76599;SDS011;65489;52.048;6.090;2023-04-30T06:59:49;0.68;;;0.68;;
76599;SDS011;65489;52.048;6.090;2023-04-30T07:02:15;1.42;;;0.90;;
76599;SDS011;65489;52.048;6.090;2023-04-30T07:04:40;1.30;;;0.90;;
76599;SDS011;65489;52.048;6.090;2023-04-30T07:07:06;1.67;;;0.85;;
76599;SDS011;65489;52.048;6.090;2023-04-30T07:09:31;0.85;;;0.70;;
76599;SDS011;65489;52.048;6.090;2023-04-30T07:11:57;1.77;;;0.90;;
76599;SDS011;65489;52.048;6.090;2023-04-30T07:14:25;1.13;;;0.90;;
76599;SDS011;65489;52.048;6.090;2023-04-30T07:16:51;1.70;;;0.93;;
76599;SDS011;65489;52.048;6.090;2023-04-30T07:19:17;0.85;;;0.80;;
76599;SDS011;65489;52.048;6.090;2023-04-30T07:21:43;2.13;;;0.95;;
76599;SDS011;65489;52.048;6.090;2023-04-30T07:24:08;2.10;;;0.85;;
76599;SDS011;65489;52.048;6.090;2023-04-30T07:26:34;1.27;;;0.70;;
76599;SDS011;65489;52.048;6.090;2023-04-30T07:29:00;1.23;;;0.80;;
76599;SDS011;65489;52.048;6.090;2023-04-30T07:31:25;1.10;;;0.98;;
76599;SDS011;65489;52.048;6.090;2023-04-30T07:33:51;1.45;;;1.00;;
76599;SDS011;65489;52.048;6.090;2023-04-30T07:36:17;1.58;;;0.90;;
76599;SDS011;65489;52.048;6.090;2023-04-30T07:38:42;2.95;;;1.20;;
76599;SDS011;65489;52.048;6.090;2023-04-30T07:41:08;2.25;;;1.00;;
76599;SDS011;65489;52.048;6.090;2023-04-30T07:43:35;3.25;;;1.10;;
76599;SDS011;65489;52.048;6.090;2023-04-30T07:46:01;1.98;;;1.10;;
76599;SDS011;65489;52.048;6.090;2023-04-30T07:48:31;3.40;;;1.20;;
76599;SDS011;65489;52.048;6.090;2023-04-30T07:50:56;4.18;;;1.40;;
76599;SDS011;65489;52.048;6.090;2023-04-30T07:53:22;6.35;;;2.40;;
76599;SDS011;65489;52.048;6.090;2023-04-30T07:55:51;11.10;;;2.38;;
76599;SDS011;65489;52.048;6.090;2023-04-30T07:58:16;9.52;;;2.83;;
76599;SDS011;65489;52.048;6.090;2023-04-30T08:00:41;14.30;;;3.42;;
76599;SDS011;65489;52.048;6.090;2023-04-30T08:03:07;14.15;;;3.63;;
76599;SDS011;65489;52.048;6.090;2023-04-30T08:05:32;12.90;;;3.38;;
76599;SDS011;65489;52.048;6.090;2023-04-30T08:07:58;11.00;;;3.00;;
76599;SDS011;65489;52.048;6.090;2023-04-30T08:10:23;12.88;;;3.42;;
76599;SDS011;65489;52.048;6.090;2023-04-30T08:12:57;10.93;;;3.13;;
76599;SDS011;65489;52.048;6.090;2023-04-30T08:15:23;11.63;;;2.95;;
76599;SDS011;65489;52.048;6.090;2023-04-30T08:17:49;9.93;;;3.05;;
76599;SDS011;65489;52.048;6.090;2023-04-30T08:20:15;9.98;;;3.50;;
76599;SDS011;65489;52.048;6.090;2023-04-30T08:22:41;8.43;;;2.80;;
76599;SDS011;65489;52.048;6.090;2023-04-30T08:25:06;13.52;;;3.05;;
76599;SDS011;65489;52.048;6.090;2023-04-30T08:27:34;13.03;;;3.47;;
76599;SDS011;65489;52.048;6.090;2023-04-30T08:30:00;10.10;;;3.35;;
76599;SDS011;65489;52.048;6.090;2023-04-30T08:32:26;10.80;;;2.97;;
76599;SDS011;65489;52.048;6.090;2023-04-30T08:34:51;8.93;;;2.75;;
76599;SDS011;65489;52.048;6.090;2023-04-30T08:37:18;10.35;;;2.92;;
76599;SDS011;65489;52.048;6.090;2023-04-30T08:39:43;9.32;;;2.70;;
76599;SDS011;65489;52.048;6.090;2023-04-30T08:42:08;10.15;;;2.70;;
76599;SDS011;65489;52.048;6.090;2023-04-30T08:47:03;7.35;;;2.65;;
76599;SDS011;65489;52.048;6.090;2023-04-30T08:49:31;9.40;;;2.88;;
76599;SDS011;65489;52.048;6.090;2023-04-30T08:51:57;12.75;;;2.50;;
76599;SDS011;65489;52.048;6.090;2023-04-30T08:54:24;9.52;;;2.70;;
76599;SDS011;65489;52.048;6.090;2023-04-30T08:56:50;6.50;;;2.53;;
76599;SDS011;65489;52.048;6.090;2023-04-30T08:59:16;6.93;;;2.60;;
76599;SDS011;65489;52.048;6.090;2023-04-30T09:01:41;8.02;;;2.30;;
76599;SDS011;65489;52.048;6.090;2023-04-30T09:04:06;5.15;;;2.15;;
76599;SDS011;65489;52.048;6.090;2023-04-30T09:06:32;7.03;;;2.22;;
76599;SDS011;65489;52.048;6.090;2023-04-30T09:09:06;7.10;;;2.30;;
76599;SDS011;65489;52.048;6.090;2023-04-30T09:11:39;6.75;;;1.90;;
76599;SDS011;65489;52.048;6.090;2023-04-30T09:14:05;5.63;;;2.40;;
76599;SDS011;65489;52.048;6.090;2023-04-30T09:16:43;6.22;;;2.58;;
76599;SDS011;65489;52.048;6.090;2023-04-30T09:19:22;8.57;;;2.38;;
76599;SDS011;65489;52.048;6.090;2023-04-30T09:21:48;7.57;;;2.20;;
76599;SDS011;65489;52.048;6.090;2023-04-30T09:24:14;7.45;;;2.78;;
76599;SDS011;65489;52.048;6.090;2023-04-30T09:26:39;7.68;;;2.47;;
76599;SDS011;65489;52.048;6.090;2023-04-30T09:29:05;11.82;;;3.72;;
76599;SDS011;65489;52.048;6.090;2023-04-30T09:31:34;11.27;;;4.20;;
76599;SDS011;65489;52.048;6.090;2023-04-30T09:34:01;14.38;;;5.68;;
76599;SDS011;65489;52.048;6.090;2023-04-30T09:36:27;7.80;;;3.90;;
76599;SDS011;65489;52.048;6.090;2023-04-30T09:38:52;10.18;;;5.03;;
76599;SDS011;65489;52.048;6.090;2023-04-30T09:41:22;12.45;;;5.35;;
76599;SDS011;65489;52.048;6.090;2023-04-30T09:43:52;14.63;;;5.53;;
76599;SDS011;65489;52.048;6.090;2023-04-30T09:46:18;12.93;;;5.88;;
76599;SDS011;65489;52.048;6.090;2023-04-30T09:48:45;14.45;;;5.63;;
76599;SDS011;65489;52.048;6.090;2023-04-30T09:51:10;18.95;;;7.20;;
76599;SDS011;65489;52.048;6.090;2023-04-30T09:53:39;16.33;;;6.28;;
76599;SDS011;65489;52.048;6.090;2023-04-30T09:56:07;12.73;;;5.63;;
76599;SDS011;65489;52.048;6.090;2023-04-30T09:58:36;11.15;;;4.65;;
76599;SDS011;65489;52.048;6.090;2023-04-30T10:01:05;8.43;;;4.22;;
76599;SDS011;65489;52.048;6.090;2023-04-30T10:03:32;10.15;;;4.13;;
76599;SDS011;65489;52.048;6.090;2023-04-30T10:05:58;7.45;;;3.38;;
76599;SDS011;65489;52.048;6.090;2023-04-30T10:11:11;5.63;;;2.63;;
76599;SDS011;65489;52.048;6.090;2023-04-30T10:13:46;6.13;;;2.50;;
76599;SDS011;65489;52.048;6.090;2023-04-30T10:19:09;8.70;;;2.70;;
76599;SDS011;65489;52.048;6.090;2023-04-30T10:21:39;4.15;;;2.08;;
76599;SDS011;65489;52.048;6.090;2023-04-30T10:24:05;4.32;;;2.17;;
76599;SDS011;65489;52.048;6.090;2023-04-30T10:26:32;4.55;;;2.03;;
76599;SDS011;65489;52.048;6.090;2023-04-30T10:28:57;4.50;;;2.15;;
76599;SDS011;65489;52.048;6.090;2023-04-30T10:31:25;4.75;;;2.10;;
76599;SDS011;65489;52.048;6.090;2023-04-30T10:36:36;3.50;;;1.85;;
76599;SDS011;65489;52.048;6.090;2023-04-30T10:39:19;4.15;;;2.10;;
76599;SDS011;65489;52.048;6.090;2023-04-30T10:41:46;5.40;;;2.08;;
76599;SDS011;65489;52.048;6.090;2023-04-30T10:44:13;4.15;;;1.70;;
76599;SDS011;65489;52.048;6.090;2023-04-30T10:46:39;3.88;;;1.85;;
76599;SDS011;65489;52.048;6.090;2023-04-30T10:49:05;4.35;;;1.98;;
76599;SDS011;65489;52.048;6.090;2023-04-30T10:51:47;3.45;;;1.58;;
76599;SDS011;65489;52.048;6.090;2023-04-30T10:54:14;2.70;;;1.48;;
76599;SDS011;65489;52.048;6.090;2023-04-30T10:56:41;3.30;;;1.60;;
76599;SDS011;65489;52.048;6.090;2023-04-30T10:59:08;3.20;;;1.60;;
76599;SDS011;65489;52.048;6.090;2023-04-30T11:01:53;4.07;;;1.70;;
76599;SDS011;65489;52.048;6.090;2023-04-30T11:04:20;4.05;;;1.50;;
76599;SDS011;65489;52.048;6.090;2023-04-30T11:06:47;3.38;;;1.30;;
76599;SDS011;65489;52.048;6.090;2023-04-30T11:09:14;4.72;;;1.65;;
76599;SDS011;65489;52.048;6.090;2023-04-30T11:11:42;5.50;;;1.60;;
76599;SDS011;65489;52.048;6.090;2023-04-30T11:14:09;3.70;;;1.70;;
76599;SDS011;65489;52.048;6.090;2023-04-30T11:16:35;3.33;;;1.30;;
76599;SDS011;65489;52.048;6.090;2023-04-30T11:19:19;3.03;;;1.38;;
76599;SDS011;65489;52.048;6.090;2023-04-30T11:27:21;3.53;;;1.40;;
76599;SDS011;65489;52.048;6.090;2023-04-30T11:29:48;2.30;;;1.08;;
76599;SDS011;65489;52.048;6.090;2023-04-30T11:32:15;3.17;;;1.30;;
76599;SDS011;65489;52.048;6.090;2023-04-30T11:34:45;3.13;;;1.25;;
76599;SDS011;65489;52.048;6.090;2023-04-30T11:37:11;2.00;;;1.20;;
76599;SDS011;65489;52.048;6.090;2023-04-30T11:39:39;2.97;;;1.33;;
76599;SDS011;65489;52.048;6.090;2023-04-30T11:42:05;2.70;;;1.20;;
76599;SDS011;65489;52.048;6.090;2023-04-30T11:44:32;3.03;;;1.38;;
76599;SDS011;65489;52.048;6.090;2023-04-30T11:46:58;2.78;;;1.02;;
76599;SDS011;65489;52.048;6.090;2023-04-30T11:49:24;1.30;;;0.98;;
76599;SDS011;65489;52.048;6.090;2023-04-30T11:51:51;2.83;;;1.35;;
76599;SDS011;65489;52.048;6.090;2023-04-30T11:54:17;3.67;;;1.40;;
76599;SDS011;65489;52.048;6.090;2023-04-30T11:56:46;2.55;;;1.30;;
76599;SDS011;65489;52.048;6.090;2023-04-30T11:59:15;1.73;;;1.02;;
76599;SDS011;65489;52.048;6.090;2023-04-30T12:01:44;2.40;;;1.20;;
76599;SDS011;65489;52.048;6.090;2023-04-30T12:04:09;1.40;;;0.90;;
76599;SDS011;65489;52.048;6.090;2023-04-30T12:06:35;2.05;;;1.20;;
76599;SDS011;65489;52.048;6.090;2023-04-30T12:09:01;2.17;;;0.98;;
76599;SDS011;65489;52.048;6.090;2023-04-30T12:11:29;1.40;;;0.90;;
76599;SDS011;65489;52.048;6.090;2023-04-30T12:14:10;2.47;;;0.98;;
76599;SDS011;65489;52.048;6.090;2023-04-30T12:19:09;2.08;;;0.90;;
76599;SDS011;65489;52.048;6.090;2023-04-30T12:21:38;2.13;;;0.80;;
76599;SDS011;65489;52.048;6.090;2023-04-30T12:24:05;2.75;;;0.98;;
76599;SDS011;65489;52.048;6.090;2023-04-30T12:26:34;1.80;;;0.80;;
76599;SDS011;65489;52.048;6.090;2023-04-30T12:29:07;1.92;;;0.80;;
76599;SDS011;65489;52.048;6.090;2023-04-30T12:31:35;1.35;;;0.70;;
76599;SDS011;65489;52.048;6.090;2023-04-30T12:34:04;2.35;;;1.00;;
76599;SDS011;65489;52.048;6.090;2023-04-30T12:36:31;1.20;;;0.70;;
76599;SDS011;65489;52.048;6.090;2023-04-30T12:39:13;1.38;;;0.80;;
76599;SDS011;65489;52.048;6.090;2023-04-30T12:41:43;1.05;;;0.70;;
76599;SDS011;65489;52.048;6.090;2023-04-30T12:44:22;1.35;;;0.88;;
76599;SDS011;65489;52.048;6.090;2023-04-30T12:46:50;1.02;;;0.70;;
76599;SDS011;65489;52.048;6.090;2023-04-30T12:49:21;0.90;;;0.70;;
76599;SDS011;65489;52.048;6.090;2023-04-30T12:51:48;1.63;;;0.70;;
76599;SDS011;65489;52.048;6.090;2023-04-30T12:54:13;1.40;;;0.80;;
76599;SDS011;65489;52.048;6.090;2023-04-30T12:56:38;1.38;;;0.77;;
76599;SDS011;65489;52.048;6.090;2023-04-30T12:59:13;1.50;;;0.70;;
76599;SDS011;65489;52.048;6.090;2023-04-30T13:01:43;0.90;;;0.60;;
76599;SDS011;65489;52.048;6.090;2023-04-30T13:04:09;2.58;;;0.93;;
76599;SDS011;65489;52.048;6.090;2023-04-30T13:06:34;1.30;;;0.90;;
76599;SDS011;65489;52.048;6.090;2023-04-30T13:09:00;2.22;;;0.93;;
76599;SDS011;65489;52.048;6.090;2023-04-30T13:11:25;1.60;;;1.00;;
76599;SDS011;65489;52.048;6.090;2023-04-30T13:13:51;0.77;;;0.68;;
76599;SDS011;65489;52.048;6.090;2023-04-30T13:16:19;1.33;;;0.60;;
76599;SDS011;65489;52.048;6.090;2023-04-30T13:18:44;1.25;;;0.55;;
76599;SDS011;65489;52.048;6.090;2023-04-30T13:21:10;0.80;;;0.60;;
76599;SDS011;65489;52.048;6.090;2023-04-30T13:23:36;1.02;;;0.65;;
76599;SDS011;65489;52.048;6.090;2023-04-30T13:26:02;1.33;;;0.90;;
76599;SDS011;65489;52.048;6.090;2023-04-30T13:28:27;2.30;;;0.75;;
76599;SDS011;65489;52.048;6.090;2023-04-30T13:30:53;0.70;;;0.60;;
76599;SDS011;65489;52.048;6.090;2023-04-30T13:33:18;0.75;;;0.55;;
76599;SDS011;65489;52.048;6.090;2023-04-30T13:35:44;1.42;;;0.63;;
76599;SDS011;65489;52.048;6.090;2023-04-30T13:38:10;1.02;;;0.60;;
76599;SDS011;65489;52.048;6.090;2023-04-30T13:40:36;0.85;;;0.50;;
76599;SDS011;65489;52.048;6.090;2023-04-30T13:43:01;1.58;;;0.70;;
76599;SDS011;65489;52.048;6.090;2023-04-30T13:45:28;1.45;;;0.80;;
76599;SDS011;65489;52.048;6.090;2023-04-30T13:47:53;1.00;;;0.50;;
76599;SDS011;65489;52.048;6.090;2023-04-30T13:50:19;1.15;;;0.85;;
76599;SDS011;65489;52.048;6.090;2023-04-30T13:52:44;0.80;;;0.60;;
76599;SDS011;65489;52.048;6.090;2023-04-30T13:55:10;1.92;;;0.70;;
76599;SDS011;65489;52.048;6.090;2023-04-30T13:57:36;0.90;;;0.60;;
76599;SDS011;65489;52.048;6.090;2023-04-30T14:00:01;1.40;;;0.60;;
76599;SDS011;65489;52.048;6.090;2023-04-30T14:02:32;0.60;;;0.40;;
76599;SDS011;65489;52.048;6.090;2023-04-30T14:04:58;0.47;;;0.30;;
76599;SDS011;65489;52.048;6.090;2023-04-30T14:07:24;0.85;;;0.50;;
76599;SDS011;65489;52.048;6.090;2023-04-30T14:09:49;1.20;;;0.50;;
76599;SDS011;65489;52.048;6.090;2023-04-30T14:12:15;1.88;;;0.60;;
76599;SDS011;65489;52.048;6.090;2023-04-30T14:14:40;0.40;;;0.38;;
76599;SDS011;65489;52.048;6.090;2023-04-30T14:17:06;1.15;;;0.45;;
76599;SDS011;65489;52.048;6.090;2023-04-30T14:19:31;1.10;;;0.50;;
76599;SDS011;65489;52.048;6.090;2023-04-30T14:21:57;0.82;;;0.40;;
76599;SDS011;65489;52.048;6.090;2023-04-30T14:24:23;0.75;;;0.50;;
76599;SDS011;65489;52.048;6.090;2023-04-30T14:26:50;1.17;;;0.50;;
76599;SDS011;65489;52.048;6.090;2023-04-30T14:29:15;0.60;;;0.40;;
76599;SDS011;65489;52.048;6.090;2023-04-30T14:31:42;0.40;;;0.35;;
76599;SDS011;65489;52.048;6.090;2023-04-30T14:34:08;1.42;;;0.50;;
76599;SDS011;65489;52.048;6.090;2023-04-30T14:36:35;0.90;;;0.40;;
76599;SDS011;65489;52.048;6.090;2023-04-30T14:39:01;1.40;;;0.50;;
76599;SDS011;65489;52.048;6.090;2023-04-30T14:41:32;0.82;;;0.40;;
76599;SDS011;65489;52.048;6.090;2023-04-30T14:43:58;0.65;;;0.50;;
76599;SDS011;65489;52.048;6.090;2023-04-30T14:46:24;0.65;;;0.50;;
76599;SDS011;65489;52.048;6.090;2023-04-30T14:48:49;1.00;;;0.40;;
76599;SDS011;65489;52.048;6.090;2023-04-30T14:51:15;0.50;;;0.35;;
76599;SDS011;65489;52.048;6.090;2023-04-30T14:53:40;1.40;;;0.50;;
76599;SDS011;65489;52.048;6.090;2023-04-30T14:56:06;0.60;;;0.32;;
76599;SDS011;65489;52.048;6.090;2023-04-30T14:58:32;0.68;;;0.40;;
76599;SDS011;65489;52.048;6.090;2023-04-30T15:00:57;1.48;;;0.50;;
76599;SDS011;65489;52.048;6.090;2023-04-30T15:03:23;0.50;;;0.40;;
76599;SDS011;65489;52.048;6.090;2023-04-30T15:05:48;0.70;;;0.40;;
76599;SDS011;65489;52.048;6.090;2023-04-30T15:08:14;0.80;;;0.55;;
76599;SDS011;65489;52.048;6.090;2023-04-30T15:10:40;0.93;;;0.50;;
76599;SDS011;65489;52.048;6.090;2023-04-30T15:13:06;0.70;;;0.50;;
76599;SDS011;65489;52.048;6.090;2023-04-30T15:15:32;0.75;;;0.40;;
76599;SDS011;65489;52.048;6.090;2023-04-30T15:17:57;0.63;;;0.43;;
76599;SDS011;65489;52.048;6.090;2023-04-30T15:20:23;0.70;;;0.40;;
76599;SDS011;65489;52.048;6.090;2023-04-30T15:22:51;0.65;;;0.47;;